sensor_id;sensor_type;location;lat;lon;timestamp;temperature;humidity
61374;DHT22;47242;48.158;-1.586;2023-09-19T04:30:05;15.20;80.90
61374;DHT22;47242;48.158;-1.586;2023-09-19T04:32:36;15.30;81.10
61374;DHT22;47242;48.158;-1.586;2023-09-19T04:35:04;15.30;81.00
61374;DHT22;47242;48.158;-1.586;2023-09-19T04:37:31;15.30;80.80
61374;DHT22;47242;48.158;-1.586;2023-09-19T04:39:57;15.30;80.90
61374;DHT22;47242;48.158;-1.586;2023-09-19T04:42:23;15.30;80.80
61374;DHT22;47242;48.158;-1.586;2023-09-19T04:44:50;15.30;80.80
61374;DHT22;47242;48.158;-1.586;2023-09-19T04:47:19;15.30;80.80
61374;DHT22;47242;48.158;-1.586;2023-09-19T04:49:44;15.30;80.90
61374;DHT22;47242;48.158;-1.586;2023-09-19T04:52:10;15.30;80.90
61374;DHT22;47242;48.158;-1.586;2023-09-19T04:54:36;15.30;80.70
61374;DHT22;47242;48.158;-1.586;2023-09-19T04:57:01;15.40;80.80
61374;DHT22;47242;48.158;-1.586;2023-09-19T04:59:27;15.40;80.80
61374;DHT22;47242;48.158;-1.586;2023-09-19T05:01:54;15.40;80.50
61374;DHT22;47242;48.158;-1.586;2023-09-19T05:04:19;15.40;80.80
61374;DHT22;47242;48.158;-1.586;2023-09-19T05:06:45;15.40;80.60
61374;DHT22;47242;48.158;-1.586;2023-09-19T05:09:10;15.40;80.80
61374;DHT22;47242;48.158;-1.586;2023-09-19T05:11:36;15.40;81.00
61374;DHT22;47242;48.158;-1.586;2023-09-19T05:14:03;15.30;80.90
61374;DHT22;47242;48.158;-1.586;2023-09-19T05:16:30;15.30;81.00
61374;DHT22;47242;48.158;-1.586;2023-09-19T05:18:59;15.30;81.00
61374;DHT22;47242;48.158;-1.586;2023-09-19T05:21:26;15.20;81.10
61374;DHT22;47242;48.158;-1.586;2023-09-19T05:23:54;15.30;81.10
61374;DHT22;47242;48.158;-1.586;2023-09-19T05:26:20;15.30;81.00
61374;DHT22;47242;48.158;-1.586;2023-09-19T05:28:46;15.30;80.80
61374;DHT22;47242;48.158;-1.586;2023-09-19T05:31:13;15.30;81.00
61374;DHT22;47242;48.158;-1.586;2023-09-19T05:33:39;15.30;81.10
61374;DHT22;47242;48.158;-1.586;2023-09-19T05:36:05;15.30;81.10
61374;DHT22;47242;48.158;-1.586;2023-09-19T05:38:31;15.30;81.10
61374;DHT22;47242;48.158;-1.586;2023-09-19T05:40:58;15.20;81.10
61374;DHT22;47242;48.158;-1.586;2023-09-19T05:43:23;15.20;81.10
61374;DHT22;47242;48.158;-1.586;2023-09-19T05:45:49;15.20;81.10
61374;DHT22;47242;48.158;-1.586;2023-09-19T05:48:17;15.10;81.30
61374;DHT22;47242;48.158;-1.586;2023-09-19T05:50:43;15.10;81.40
61374;DHT22;47242;48.158;-1.586;2023-09-19T05:53:09;15.10;81.40
61374;DHT22;47242;48.158;-1.586;2023-09-19T05:55:38;15.20;81.60
61374;DHT22;47242;48.158;-1.586;2023-09-19T05:58:04;15.10;81.40
61374;DHT22;47242;48.158;-1.586;2023-09-19T06:00:30;15.10;81.30
61374;DHT22;47242;48.158;-1.586;2023-09-19T06:02:58;15.10;81.50
61374;DHT22;47242;48.158;-1.586;2023-09-19T06:05:25;15.20;81.50
61374;DHT22;47242;48.158;-1.586;2023-09-19T06:07:52;15.20;81.40
61374;DHT22;47242;48.158;-1.586;2023-09-19T06:10:18;15.20;81.40
61374;DHT22;47242;48.158;-1.586;2023-09-19T06:12:46;15.20;81.30
61374;DHT22;47242;48.158;-1.586;2023-09-19T06:15:16;15.30;81.20
61374;DHT22;47242;48.158;-1.586;2023-09-19T06:17:51;15.30;81.10
61374;DHT22;47242;48.158;-1.586;2023-09-19T06:20:17;15.30;81.10
61374;DHT22;47242;48.158;-1.586;2023-09-19T06:22:44;15.30;81.00
61374;DHT22;47242;48.158;-1.586;2023-09-19T06:25:12;15.30;81.20
61374;DHT22;47242;48.158;-1.586;2023-09-19T06:27:39;15.20;81.30
61374;DHT22;47242;48.158;-1.586;2023-09-19T06:30:08;15.20;81.30
61374;DHT22;47242;48.158;-1.586;2023-09-19T06:32:35;15.20;81.40
61374;DHT22;47242;48.158;-1.586;2023-09-19T06:35:00;15.20;81.70
61374;DHT22;47242;48.158;-1.586;2023-09-19T06:37:29;15.30;81.50
61374;DHT22;47242;48.158;-1.586;2023-09-19T06:39:55;15.30;81.50
61374;DHT22;47242;48.158;-1.586;2023-09-19T06:42:22;15.30;81.20
61374;DHT22;47242;48.158;-1.586;2023-09-19T06:44:48;15.30;81.50
61374;DHT22;47242;48.158;-1.586;2023-09-19T06:47:14;15.30;81.40
61374;DHT22;47242;48.158;-1.586;2023-09-19T06:49:41;15.30;81.40
61374;DHT22;47242;48.158;-1.586;2023-09-19T06:52:09;15.40;81.40
61374;DHT22;47242;48.158;-1.586;2023-09-19T06:54:35;15.30;81.30
61374;DHT22;47242;48.158;-1.586;2023-09-19T06:57:01;15.40;81.40
61374;DHT22;47242;48.158;-1.586;2023-09-19T06:59:27;15.50;81.20
61374;DHT22;47242;48.158;-1.586;2023-09-19T07:01:52;15.60;81.20
61374;DHT22;47242;48.158;-1.586;2023-09-19T07:04:18;15.80;80.90
61374;DHT22;47242;48.158;-1.586;2023-09-19T07:06:50;15.90;80.10
61374;DHT22;47242;48.158;-1.586;2023-09-19T07:09:16;16.10;79.90
61374;DHT22;47242;48.158;-1.586;2023-09-19T07:11:43;16.20;79.70
61374;DHT22;47242;48.158;-1.586;2023-09-19T07:14:08;16.40;79.60
61374;DHT22;47242;48.158;-1.586;2023-09-19T07:16:37;16.70;78.90
61374;DHT22;47242;48.158;-1.586;2023-09-19T07:19:04;17.10;77.70
61374;DHT22;47242;48.158;-1.586;2023-09-19T07:21:30;18.10;75.20
61374;DHT22;47242;48.158;-1.586;2023-09-19T07:23:56;19.20;72.90
61374;DHT22;47242;48.158;-1.586;2023-09-19T07:26:22;20.10;70.00
61374;DHT22;47242;48.158;-1.586;2023-09-19T07:28:47;19.60;69.10
61374;DHT22;47242;48.158;-1.586;2023-09-19T07:31:13;20.60;67.40
61374;DHT22;47242;48.158;-1.586;2023-09-19T07:33:39;20.20;68.00
61374;DHT22;47242;48.158;-1.586;2023-09-19T07:36:05;19.40;68.30
61374;DHT22;47242;48.158;-1.586;2023-09-19T07:38:31;19.10;69.70
61374;DHT22;47242;48.158;-1.586;2023-09-19T07:41:01;18.90;70.70
61374;DHT22;47242;48.158;-1.586;2023-09-19T07:43:28;19.10;71.00
61374;DHT22;47242;48.158;-1.586;2023-09-19T07:45:53;20.00;68.70
61374;DHT22;47242;48.158;-1.586;2023-09-19T07:48:19;21.50;65.70
61374;DHT22;47242;48.158;-1.586;2023-09-19T07:50:44;21.50;64.70
61374;DHT22;47242;48.158;-1.586;2023-09-19T07:53:11;20.80;65.90
61374;DHT22;47242;48.158;-1.586;2023-09-19T07:55:39;20.60;67.10
61374;DHT22;47242;48.158;-1.586;2023-09-19T07:58:07;20.20;67.90
61374;DHT22;47242;48.158;-1.586;2023-09-19T08:00:32;19.70;68.70
61374;DHT22;47242;48.158;-1.586;2023-09-19T08:03:00;19.20;70.10
61374;DHT22;47242;48.158;-1.586;2023-09-19T08:05:26;18.80;71.70
61374;DHT22;47242;48.158;-1.586;2023-09-19T08:07:52;18.50;72.80
61374;DHT22;47242;48.158;-1.586;2023-09-19T08:10:19;18.20;73.90
61374;DHT22;47242;48.158;-1.586;2023-09-19T08:12:47;18.10;74.30
61374;DHT22;47242;48.158;-1.586;2023-09-19T08:15:17;18.00;74.90
61374;DHT22;47242;48.158;-1.586;2023-09-19T08:17:44;18.00;75.30
61374;DHT22;47242;48.158;-1.586;2023-09-19T08:20:11;18.10;75.40
61374;DHT22;47242;48.158;-1.586;2023-09-19T08:22:48;18.30;75.20
61374;DHT22;47242;48.158;-1.586;2023-09-19T08:25:18;18.30;75.30
61374;DHT22;47242;48.158;-1.586;2023-09-19T08:27:48;18.30;75.50
61374;DHT22;47242;48.158;-1.586;2023-09-19T08:30:16;18.30;75.50
61374;DHT22;47242;48.158;-1.586;2023-09-19T08:32:41;18.30;75.70
61374;DHT22;47242;48.158;-1.586;2023-09-19T08:35:08;18.20;76.00
61374;DHT22;47242;48.158;-1.586;2023-09-19T08:37:35;18.30;76.50
61374;DHT22;47242;48.158;-1.586;2023-09-19T08:40:00;18.30;76.10
61374;DHT22;47242;48.158;-1.586;2023-09-19T08:42:26;18.50;76.40
61374;DHT22;47242;48.158;-1.586;2023-09-19T08:44:52;18.70;75.80
61374;DHT22;47242;48.158;-1.586;2023-09-19T08:47:26;18.90;75.40
61374;DHT22;47242;48.158;-1.586;2023-09-19T08:52:25;18.90;75.10
61374;DHT22;47242;48.158;-1.586;2023-09-19T08:54:52;18.80;75.30
61374;DHT22;47242;48.158;-1.586;2023-09-19T08:57:21;18.80;75.90
61374;DHT22;47242;48.158;-1.586;2023-09-19T08:59:48;18.90;76.00
61374;DHT22;47242;48.158;-1.586;2023-09-19T09:02:17;18.90;75.70
61374;DHT22;47242;48.158;-1.586;2023-09-19T09:04:48;18.90;76.10
61374;DHT22;47242;48.158;-1.586;2023-09-19T09:07:16;19.00;76.00
61374;DHT22;47242;48.158;-1.586;2023-09-19T09:09:44;19.00;75.50
61374;DHT22;47242;48.158;-1.586;2023-09-19T09:12:14;19.10;75.60
61374;DHT22;47242;48.158;-1.586;2023-09-19T09:14:45;19.10;75.90
61374;DHT22;47242;48.158;-1.586;2023-09-19T09:17:12;19.30;75.70
61374;DHT22;47242;48.158;-1.586;2023-09-19T09:19:37;19.40;75.80
61374;DHT22;47242;48.158;-1.586;2023-09-19T09:22:10;19.50;75.20
61374;DHT22;47242;48.158;-1.586;2023-09-19T09:24:37;19.60;75.10
61374;DHT22;47242;48.158;-1.586;2023-09-19T09:27:05;19.80;75.10
61374;DHT22;47242;48.158;-1.586;2023-09-19T09:29:44;19.80;74.10
61374;DHT22;47242;48.158;-1.586;2023-09-19T09:32:27;19.80;74.00
61374;DHT22;47242;48.158;-1.586;2023-09-19T09:34:58;19.90;73.80
61374;DHT22;47242;48.158;-1.586;2023-09-19T09:37:25;19.80;73.40
61374;DHT22;47242;48.158;-1.586;2023-09-19T09:40:00;19.80;72.70
61374;DHT22;47242;48.158;-1.586;2023-09-19T09:42:41;19.80;72.10
61374;DHT22;47242;48.158;-1.586;2023-09-19T09:45:33;20.10;73.30
61374;DHT22;47242;48.158;-1.586;2023-09-19T09:48:00;20.20;72.20
61374;DHT22;47242;48.158;-1.586;2023-09-19T09:50:31;20.30;71.60
61374;DHT22;47242;48.158;-1.586;2023-09-19T09:53:29;20.40;71.40
61374;DHT22;47242;48.158;-1.586;2023-09-19T09:56:03;20.50;70.80
61374;DHT22;47242;48.158;-1.586;2023-09-19T09:58:32;20.40;69.80
61374;DHT22;47242;48.158;-1.586;2023-09-19T10:00:59;20.50;70.00
61374;DHT22;47242;48.158;-1.586;2023-09-19T10:03:35;20.80;71.00
61374;DHT22;47242;48.158;-1.586;2023-09-19T10:06:15;20.80;70.80
61374;DHT22;47242;48.158;-1.586;2023-09-19T10:09:00;21.00;69.70
61374;DHT22;47242;48.158;-1.586;2023-09-19T10:11:49;21.10;69.00
61374;DHT22;47242;48.158;-1.586;2023-09-19T10:14:28;21.10;68.00
61374;DHT22;47242;48.158;-1.586;2023-09-19T10:16:58;21.00;68.20
61374;DHT22;47242;48.158;-1.586;2023-09-19T10:19:59;20.90;68.10
61374;DHT22;47242;48.158;-1.586;2023-09-19T10:22:31;20.90;68.70
61374;DHT22;47242;48.158;-1.586;2023-09-19T10:24:59;21.10;67.80
61374;DHT22;47242;48.158;-1.586;2023-09-19T10:27:26;21.10;67.60
61374;DHT22;47242;48.158;-1.586;2023-09-19T10:29:55;21.20;66.90
61374;DHT22;47242;48.158;-1.586;2023-09-19T10:32:23;21.30;67.40
61374;DHT22;47242;48.158;-1.586;2023-09-19T10:34:49;21.40;66.70
61374;DHT22;47242;48.158;-1.586;2023-09-19T10:37:20;21.70;65.20
61374;DHT22;47242;48.158;-1.586;2023-09-19T10:39:48;21.70;64.10
61374;DHT22;47242;48.158;-1.586;2023-09-19T10:42:19;21.80;64.20
61374;DHT22;47242;48.158;-1.586;2023-09-19T10:44:47;21.70;62.60
61374;DHT22;47242;48.158;-1.586;2023-09-19T10:47:19;21.80;62.30
61374;DHT22;47242;48.158;-1.586;2023-09-19T10:49:46;22.00;62.70
61374;DHT22;47242;48.158;-1.586;2023-09-19T10:52:14;22.00;62.50
61374;DHT22;47242;48.158;-1.586;2023-09-19T10:54:47;22.10;62.40
61374;DHT22;47242;48.158;-1.586;2023-09-19T10:57:21;22.00;61.50
61374;DHT22;47242;48.158;-1.586;2023-09-19T11:00:08;22.30;61.50
61374;DHT22;47242;48.158;-1.586;2023-09-19T11:05:38;22.10;61.40
61374;DHT22;47242;48.158;-1.586;2023-09-19T11:08:07;22.30;61.50
61374;DHT22;47242;48.158;-1.586;2023-09-19T11:10:45;22.40;60.80
61374;DHT22;47242;48.158;-1.586;2023-09-19T11:13:27;22.50;60.30
61374;DHT22;47242;48.158;-1.586;2023-09-19T11:26:45;22.30;59.40
61374;DHT22;47242;48.158;-1.586;2023-09-19T11:29:30;22.30;59.50
61374;DHT22;47242;48.158;-1.586;2023-09-19T11:31:57;22.50;61.10
61374;DHT22;47242;48.158;-1.586;2023-09-19T11:40:09;22.70;57.60
61374;DHT22;47242;48.158;-1.586;2023-09-19T11:42:42;22.50;58.80
61374;DHT22;47242;48.158;-1.586;2023-09-19T11:48:16;22.70;57.70
61374;DHT22;47242;48.158;-1.586;2023-09-19T11:50:45;22.70;57.80
61374;DHT22;47242;48.158;-1.586;2023-09-19T11:53:12;22.80;57.90
61374;DHT22;47242;48.158;-1.586;2023-09-19T11:55:40;23.00;58.40
61374;DHT22;47242;48.158;-1.586;2023-09-19T11:58:08;23.20;57.90
61374;DHT22;47242;48.158;-1.586;2023-09-19T12:00:36;23.30;56.90
61374;DHT22;47242;48.158;-1.586;2023-09-19T12:03:09;23.50;56.20
61374;DHT22;47242;48.158;-1.586;2023-09-19T12:05:36;23.70;55.90
61374;DHT22;47242;48.158;-1.586;2023-09-19T12:08:07;23.60;54.60
61374;DHT22;47242;48.158;-1.586;2023-09-19T12:10:51;23.50;55.10
61374;DHT22;47242;48.158;-1.586;2023-09-19T12:13:19;23.20;56.00
61374;DHT22;47242;48.158;-1.586;2023-09-19T12:15:46;23.20;56.40
61374;DHT22;47242;48.158;-1.586;2023-09-19T12:18:31;23.10;56.20
61374;DHT22;47242;48.158;-1.586;2023-09-19T12:20:57;23.10;56.00
61374;DHT22;47242;48.158;-1.586;2023-09-19T12:23:24;23.00;55.70
61374;DHT22;47242;48.158;-1.586;2023-09-19T12:25:51;23.00;56.20
61374;DHT22;47242;48.158;-1.586;2023-09-19T12:28:18;22.90;55.80
61374;DHT22;47242;48.158;-1.586;2023-09-19T12:30:44;22.80;55.40
61374;DHT22;47242;48.158;-1.586;2023-09-19T12:33:18;22.90;55.80
61374;DHT22;47242;48.158;-1.586;2023-09-19T12:35:51;22.80;56.90
61374;DHT22;47242;48.158;-1.586;2023-09-19T12:38:28;22.80;56.40
61374;DHT22;47242;48.158;-1.586;2023-09-19T12:40:55;22.80;55.90
61374;DHT22;47242;48.158;-1.586;2023-09-19T12:43:22;22.80;56.50
61374;DHT22;47242;48.158;-1.586;2023-09-19T12:45:48;22.80;57.30
61374;DHT22;47242;48.158;-1.586;2023-09-19T12:48:24;22.80;57.10
61374;DHT22;47242;48.158;-1.586;2023-09-19T12:51:08;22.80;58.20
61374;DHT22;47242;48.158;-1.586;2023-09-19T12:53:42;22.90;57.70
61374;DHT22;47242;48.158;-1.586;2023-09-19T12:56:10;22.80;57.10
61374;DHT22;47242;48.158;-1.586;2023-09-19T12:59:08;22.80;56.80
61374;DHT22;47242;48.158;-1.586;2023-09-19T13:01:39;22.70;57.40
61374;DHT22;47242;48.158;-1.586;2023-09-19T13:04:21;22.70;57.90
61374;DHT22;47242;48.158;-1.586;2023-09-19T13:06:55;22.60;57.70
61374;DHT22;47242;48.158;-1.586;2023-09-19T13:09:26;22.60;57.90
61374;DHT22;47242;48.158;-1.586;2023-09-19T13:12:00;22.60;57.90
61374;DHT22;47242;48.158;-1.586;2023-09-19T13:14:29;22.70;57.70
61374;DHT22;47242;48.158;-1.586;2023-09-19T13:17:09;22.70;57.50
61374;DHT22;47242;48.158;-1.586;2023-09-19T13:19:50;22.80;57.60
61374;DHT22;47242;48.158;-1.586;2023-09-19T13:22:42;22.70;57.00
61374;DHT22;47242;48.158;-1.586;2023-09-19T13:25:10;22.70;56.30
61374;DHT22;47242;48.158;-1.586;2023-09-19T13:27:43;22.70;56.40
61374;DHT22;47242;48.158;-1.586;2023-09-19T13:30:10;22.70;56.70
61374;DHT22;47242;48.158;-1.586;2023-09-19T13:32:36;22.60;56.30
61374;DHT22;47242;48.158;-1.586;2023-09-19T13:35:05;22.60;56.90
61374;DHT22;47242;48.158;-1.586;2023-09-19T13:37:32;22.50;56.80
61374;DHT22;47242;48.158;-1.586;2023-09-19T13:39:59;22.50;57.60
61374;DHT22;47242;48.158;-1.586;2023-09-19T13:42:25;22.40;57.70
61374;DHT22;47242;48.158;-1.586;2023-09-19T13:44:55;22.50;57.90
61374;DHT22;47242;48.158;-1.586;2023-09-19T13:47:21;22.50;58.80
61374;DHT22;47242;48.158;-1.586;2023-09-19T13:49:50;22.60;58.70
61374;DHT22;47242;48.158;-1.586;2023-09-19T13:52:19;22.60;58.70
61374;DHT22;47242;48.158;-1.586;2023-09-19T13:54:44;22.60;59.20
61374;DHT22;47242;48.158;-1.586;2023-09-19T13:57:10;22.60;59.40
61374;DHT22;47242;48.158;-1.586;2023-09-19T13:59:35;22.70;59.30
61374;DHT22;47242;48.158;-1.586;2023-09-19T14:02:02;22.60;59.30
61374;DHT22;47242;48.158;-1.586;2023-09-19T14:04:31;22.70;59.20
61374;DHT22;47242;48.158;-1.586;2023-09-19T14:06:57;22.70;59.40
61374;DHT22;47242;48.158;-1.586;2023-09-19T14:09:24;22.70;58.90
61374;DHT22;47242;48.158;-1.586;2023-09-19T14:11:50;22.70;59.40
61374;DHT22;47242;48.158;-1.586;2023-09-19T14:14:18;22.80;59.50
61374;DHT22;47242;48.158;-1.586;2023-09-19T14:16:44;23.00;58.50
61374;DHT22;47242;48.158;-1.586;2023-09-19T14:19:09;23.10;57.90
61374;DHT22;47242;48.158;-1.586;2023-09-19T14:21:35;23.10;56.70
61374;DHT22;47242;48.158;-1.586;2023-09-19T14:24:02;23.20;55.70
61374;DHT22;47242;48.158;-1.586;2023-09-19T14:26:28;23.30;55.30
61374;DHT22;47242;48.158;-1.586;2023-09-19T14:28:54;23.20;55.80
61374;DHT22;47242;48.158;-1.586;2023-09-19T14:31:20;23.00;56.10
61374;DHT22;47242;48.158;-1.586;2023-09-19T14:33:52;23.00;57.20
61374;DHT22;47242;48.158;-1.586;2023-09-19T14:36:18;23.20;57.00
61374;DHT22;47242;48.158;-1.586;2023-09-19T14:38:44;23.10;55.80
61374;DHT22;47242;48.158;-1.586;2023-09-19T14:41:10;23.00;56.10
61374;DHT22;47242;48.158;-1.586;2023-09-19T14:43:35;23.00;56.80
61374;DHT22;47242;48.158;-1.586;2023-09-19T14:46:07;23.00;57.10
61374;DHT22;47242;48.158;-1.586;2023-09-19T14:48:34;22.90;56.50
61374;DHT22;47242;48.158;-1.586;2023-09-19T14:51:03;22.90;56.10
61374;DHT22;47242;48.158;-1.586;2023-09-19T14:53:32;22.70;57.00
61374;DHT22;47242;48.158;-1.586;2023-09-19T14:56:02;22.80;57.90
61374;DHT22;47242;48.158;-1.586;2023-09-19T14:58:31;22.70;57.20
61374;DHT22;47242;48.158;-1.586;2023-09-19T15:01:07;22.70;57.80
61374;DHT22;47242;48.158;-1.586;2023-09-19T15:03:34;22.50;57.30
61374;DHT22;47242;48.158;-1.586;2023-09-19T15:06:04;22.40;57.60
61374;DHT22;47242;48.158;-1.586;2023-09-19T15:08:34;22.40;58.10
61374;DHT22;47242;48.158;-1.586;2023-09-19T15:11:04;22.30;57.70
61374;DHT22;47242;48.158;-1.586;2023-09-19T15:13:31;22.30;57.80
61374;DHT22;47242;48.158;-1.586;2023-09-19T15:16:07;22.10;58.00
61374;DHT22;47242;48.158;-1.586;2023-09-19T15:18:37;22.20;58.60
61374;DHT22;47242;48.158;-1.586;2023-09-19T15:21:04;22.20;58.30
61374;DHT22;47242;48.158;-1.586;2023-09-19T15:23:32;22.30;58.50
61374;DHT22;47242;48.158;-1.586;2023-09-19T15:26:00;22.30;57.70
61374;DHT22;47242;48.158;-1.586;2023-09-19T15:28:30;22.50;58.10
61374;DHT22;47242;48.158;-1.586;2023-09-19T15:31:01;22.60;57.30
61374;DHT22;47242;48.158;-1.586;2023-09-19T15:33:27;22.50;56.80
61374;DHT22;47242;48.158;-1.586;2023-09-19T15:36:06;22.60;56.60
61374;DHT22;47242;48.158;-1.586;2023-09-19T15:41:23;22.20;57.50
61374;DHT22;47242;48.158;-1.586;2023-09-19T15:43:49;22.20;58.20
61374;DHT22;47242;48.158;-1.586;2023-09-19T15:46:15;22.00;58.00
61374;DHT22;47242;48.158;-1.586;2023-09-19T15:48:41;22.00;58.40
61374;DHT22;47242;48.158;-1.586;2023-09-19T15:51:07;21.90;59.10
61374;DHT22;47242;48.158;-1.586;2023-09-19T15:53:44;22.00;59.20
61374;DHT22;47242;48.158;-1.586;2023-09-19T15:56:11;21.90;58.80
61374;DHT22;47242;48.158;-1.586;2023-09-19T15:58:37;21.90;58.40
61374;DHT22;47242;48.158;-1.586;2023-09-19T16:01:08;22.00;58.60
61374;DHT22;47242;48.158;-1.586;2023-09-19T16:03:36;21.90;59.40
61374;DHT22;47242;48.158;-1.586;2023-09-19T16:06:07;21.70;58.60
61374;DHT22;47242;48.158;-1.586;2023-09-19T16:08:33;21.70;59.20
61374;DHT22;47242;48.158;-1.586;2023-09-19T16:11:00;21.80;59.80
61374;DHT22;47242;48.158;-1.586;2023-09-19T16:13:25;21.80;58.60
61374;DHT22;47242;48.158;-1.586;2023-09-19T16:15:54;21.70;59.10
61374;DHT22;47242;48.158;-1.586;2023-09-19T16:18:19;21.80;58.80
61374;DHT22;47242;48.158;-1.586;2023-09-19T16:20:45;21.80;58.90
61374;DHT22;47242;48.158;-1.586;2023-09-19T16:23:11;21.80;58.50
61374;DHT22;47242;48.158;-1.586;2023-09-19T16:25:37;21.80;59.00
61374;DHT22;47242;48.158;-1.586;2023-09-19T16:28:03;21.70;59.40
61374;DHT22;47242;48.158;-1.586;2023-09-19T16:30:32;21.70;59.10
61374;DHT22;47242;48.158;-1.586;2023-09-19T16:32:59;21.70;60.00
61374;DHT22;47242;48.158;-1.586;2023-09-19T16:35:25;21.60;59.10
61374;DHT22;47242;48.158;-1.586;2023-09-19T16:37:51;21.60;58.90
61374;DHT22;47242;48.158;-1.586;2023-09-19T16:40:16;21.60;59.30
61374;DHT22;47242;48.158;-1.586;2023-09-19T16:42:42;21.50;58.90
61374;DHT22;47242;48.158;-1.586;2023-09-19T16:45:09;21.60;59.10
61374;DHT22;47242;48.158;-1.586;2023-09-19T16:47:36;21.60;59.50
61374;DHT22;47242;48.158;-1.586;2023-09-19T16:50:02;21.60;58.90
61374;DHT22;47242;48.158;-1.586;2023-09-19T16:52:27;21.60;60.00
61374;DHT22;47242;48.158;-1.586;2023-09-19T16:54:53;21.80;59.60
61374;DHT22;47242;48.158;-1.586;2023-09-19T16:57:19;21.80;59.40
61374;DHT22;47242;48.158;-1.586;2023-09-19T16:59:45;21.80;59.80
61374;DHT22;47242;48.158;-1.586;2023-09-19T17:02:11;21.70;60.30
61374;DHT22;47242;48.158;-1.586;2023-09-19T17:04:36;21.60;60.40
61374;DHT22;47242;48.158;-1.586;2023-09-19T17:07:02;21.50;60.80
61374;DHT22;47242;48.158;-1.586;2023-09-19T17:09:28;21.40;60.90
61374;DHT22;47242;48.158;-1.586;2023-09-19T17:11:54;21.30;61.40
61374;DHT22;47242;48.158;-1.586;2023-09-19T17:14:20;21.20;61.90
61374;DHT22;47242;48.158;-1.586;2023-09-19T17:16:45;21.10;62.10
61374;DHT22;47242;48.158;-1.586;2023-09-19T17:19:11;21.00;62.50
61374;DHT22;47242;48.158;-1.586;2023-09-19T17:21:37;21.00;62.80
61374;DHT22;47242;48.158;-1.586;2023-09-19T17:24:04;20.90;63.30
61374;DHT22;47242;48.158;-1.586;2023-09-19T17:26:33;20.90;63.10
61374;DHT22;47242;48.158;-1.586;2023-09-19T17:28:59;20.80;63.20
61374;DHT22;47242;48.158;-1.586;2023-09-19T17:31:26;20.80;63.50
61374;DHT22;47242;48.158;-1.586;2023-09-19T17:33:52;20.80;63.80
61374;DHT22;47242;48.158;-1.586;2023-09-19T17:38:47;20.80;63.90
61374;DHT22;47242;48.158;-1.586;2023-09-19T17:41:13;20.70;64.00
61374;DHT22;47242;48.158;-1.586;2023-09-19T17:43:41;20.70;64.00
61374;DHT22;47242;48.158;-1.586;2023-09-19T17:46:13;20.70;64.10
61374;DHT22;47242;48.158;-1.586;2023-09-19T17:48:41;20.70;63.90
61374;DHT22;47242;48.158;-1.586;2023-09-19T17:51:08;20.80;63.50
61374;DHT22;47242;48.158;-1.586;2023-09-19T17:53:38;20.70;63.90
61374;DHT22;47242;48.158;-1.586;2023-09-19T17:56:07;20.60;64.00
61374;DHT22;47242;48.158;-1.586;2023-09-19T17:58:39;20.40;64.00
61374;DHT22;47242;48.158;-1.586;2023-09-19T18:01:17;20.40;64.30
61374;DHT22;47242;48.158;-1.586;2023-09-19T18:03:46;20.30;64.20
61374;DHT22;47242;48.158;-1.586;2023-09-19T18:06:13;20.30;64.50
61374;DHT22;47242;48.158;-1.586;2023-09-19T18:08:40;20.30;64.60
61374;DHT22;47242;48.158;-1.586;2023-09-19T18:11:12;20.30;65.00
61374;DHT22;47242;48.158;-1.586;2023-09-19T18:13:44;20.30;65.00
61374;DHT22;47242;48.158;-1.586;2023-09-19T18:16:10;20.30;65.20
61374;DHT22;47242;48.158;-1.586;2023-09-19T18:18:35;20.20;65.30
61374;DHT22;47242;48.158;-1.586;2023-09-19T18:21:02;20.20;65.40
61374;DHT22;47242;48.158;-1.586;2023-09-19T18:23:28;20.20;65.70
61374;DHT22;47242;48.158;-1.586;2023-09-19T18:26:00;20.20;65.90
61374;DHT22;47242;48.158;-1.586;2023-09-19T18:28:27;20.10;66.10
61374;DHT22;47242;48.158;-1.586;2023-09-19T18:30:52;20.10;66.40
61374;DHT22;47242;48.158;-1.586;2023-09-19T18:33:18;20.10;67.60
61374;DHT22;47242;48.158;-1.586;2023-09-19T18:35:46;20.10;67.80
61374;DHT22;47242;48.158;-1.586;2023-09-19T18:38:12;20.10;68.50
61374;DHT22;47242;48.158;-1.586;2023-09-19T18:40:43;20.00;69.10
61374;DHT22;47242;48.158;-1.586;2023-09-19T18:43:08;20.00;69.70
61374;DHT22;47242;48.158;-1.586;2023-09-19T18:45:34;20.00;70.10
61374;DHT22;47242;48.158;-1.586;2023-09-19T18:48:00;19.90;70.60
61374;DHT22;47242;48.158;-1.586;2023-09-19T18:50:27;19.90;71.00
61374;DHT22;47242;48.158;-1.586;2023-09-19T18:52:53;19.80;71.30
61374;DHT22;47242;48.158;-1.586;2023-09-19T18:55:18;19.80;71.70
61374;DHT22;47242;48.158;-1.586;2023-09-19T18:57:45;19.80;71.80
61374;DHT22;47242;48.158;-1.586;2023-09-19T19:00:11;19.80;71.80
61374;DHT22;47242;48.158;-1.586;2023-09-19T19:02:37;19.80;72.00
61374;DHT22;47242;48.158;-1.586;2023-09-19T19:05:07;19.80;72.20
61374;DHT22;47242;48.158;-1.586;2023-09-19T19:07:38;19.80;72.30
61374;DHT22;47242;48.158;-1.586;2023-09-19T19:10:04;19.70;72.70
61374;DHT22;47242;48.158;-1.586;2023-09-19T19:12:32;19.60;72.70
61374;DHT22;47242;48.158;-1.586;2023-09-19T19:14:58;19.70;72.80
61374;DHT22;47242;48.158;-1.586;2023-09-19T19:17:27;19.60;73.20
61374;DHT22;47242;48.158;-1.586;2023-09-19T19:19:53;19.60;73.20
61374;DHT22;47242;48.158;-1.586;2023-09-19T19:22:20;19.60;73.20
61374;DHT22;47242;48.158;-1.586;2023-09-19T19:24:46;19.60;73.40
61374;DHT22;47242;48.158;-1.586;2023-09-19T19:27:12;19.50;73.90
61374;DHT22;47242;48.158;-1.586;2023-09-19T19:29:38;19.50;74.00
61374;DHT22;47242;48.158;-1.586;2023-09-19T19:32:03;19.60;73.90
61374;DHT22;47242;48.158;-1.586;2023-09-19T19:34:29;19.60;73.90
61374;DHT22;47242;48.158;-1.586;2023-09-19T19:36:56;19.60;73.90
61374;DHT22;47242;48.158;-1.586;2023-09-19T19:39:22;19.60;73.90
61374;DHT22;47242;48.158;-1.586;2023-09-19T19:41:49;19.70;74.00
61374;DHT22;47242;48.158;-1.586;2023-09-19T19:44:15;19.50;74.10
61374;DHT22;47242;48.158;-1.586;2023-09-19T19:46:41;19.50;74.10
61374;DHT22;47242;48.158;-1.586;2023-09-19T19:49:07;19.60;74.10
61374;DHT22;47242;48.158;-1.586;2023-09-19T19:51:33;19.60;74.00
61374;DHT22;47242;48.158;-1.586;2023-09-19T19:54:02;19.70;74.00
61374;DHT22;47242;48.158;-1.586;2023-09-19T19:56:28;19.60;74.10
61374;DHT22;47242;48.158;-1.586;2023-09-19T19:58:55;19.60;74.20
61374;DHT22;47242;48.158;-1.586;2023-09-19T20:01:20;19.60;74.50
61374;DHT22;47242;48.158;-1.586;2023-09-19T20:03:47;19.60;74.50
61374;DHT22;47242;48.158;-1.586;2023-09-19T20:06:14;19.60;74.70
61374;DHT22;47242;48.158;-1.586;2023-09-19T20:08:43;19.50;74.90
61374;DHT22;47242;48.158;-1.586;2023-09-19T20:11:09;19.50;75.20
61374;DHT22;47242;48.158;-1.586;2023-09-19T20:13:35;19.50;75.10
61374;DHT22;47242;48.158;-1.586;2023-09-19T20:16:02;19.60;75.20
61374;DHT22;47242;48.158;-1.586;2023-09-19T20:18:29;19.50;75.40
61374;DHT22;47242;48.158;-1.586;2023-09-19T20:20:55;19.40;75.50
61374;DHT22;47242;48.158;-1.586;2023-09-19T20:23:21;19.30;75.90